Time;durP1;ratioP1;P1;durP2;ratioP2;P2;SDS_P1;SDS_P2;PMS_P1;PMS_P2;Temp;Humidity;BMP_temperature;BMP_pressure;BME280_temperature;BME280_humidity;BME280_pressure;Samples;Min_cycle;Max_cycle;Signal;HPM_P1;HPM_P2
2021/08/17 00:00:31;;;;;;;22.87;18.13;;;;;23.60;100603.00;;;;2061583;28;20211;-53
2021/08/17 00:01:32;;;;;;;20.90;16.30;;;;;23.70;100597.00;;;;2059161;28;20692;-52
2021/08/17 00:02:32;;;;;;;19.30;15.47;;;;;23.70;100597.00;;;;2059129;28;20211;-52
2021/08/17 00:03:33;;;;;;;21.00;17.90;;;;;23.70;100607.00;;;;2056599;28;20216;-52
2021/08/17 00:04:33;;;;;;;19.90;16.30;;;;;23.60;100599.00;;;;2058543;28;20220;-52
2021/08/17 00:05:38;;;;;;;18.80;15.80;;;;;23.60;100593.00;;;;2056292;28;20216;-52
2021/08/17 00:06:38;;;;;;;18.45;15.05;;;;;23.60;100601.00;;;;2066223;28;20627;-52
2021/08/17 00:07:40;;;;;;;17.90;14.57;;;;;23.60;100606.00;;;;2066306;28;20211;-53
2021/08/17 00:08:40;;;;;;;22.13;16.10;;;;;23.60;100597.00;;;;2065599;28;20203;-52
2021/08/17 00:09:41;;;;;;;18.17;14.20;;;;;23.60;100597.00;;;;2071036;28;20316;-52
2021/08/17 00:10:41;;;;;;;19.03;14.63;;;;;23.50;100595.00;;;;2078768;28;20292;-52
2021/08/17 00:11:42;;;;;;;16.67;13.97;;;;;23.60;100597.00;;;;2057446;28;20211;-53
2021/08/17 00:12:42;;;;;;;17.50;14.60;;;;;23.50;100599.00;;;;2057755;28;20306;-52
2021/08/17 00:13:43;;;;;;;19.03;15.13;;;;;23.60;100597.00;;;;2056747;28;20227;-52
2021/08/17 00:14:43;;;;;;;16.15;13.57;;;;;23.60;100602.00;;;;2059221;28;20207;-53
2021/08/17 00:15:44;;;;;;;16.10;13.40;;;;;23.50;100598.00;;;;2064724;28;20236;-52
2021/08/17 00:16:44;;;;;;;14.47;12.77;;;;;23.50;100595.00;;;;2058625;28;20298;-52
2021/08/17 00:17:46;;;;;;;14.30;12.00;;;;;23.50;100603.00;;;;2054413;28;20212;-53
2021/08/17 00:18:47;;;;;;;15.35;12.07;;;;;23.50;100588.00;;;;2054624;28;20279;-52
2021/08/17 00:19:47;;;;;;;13.60;11.33;;;;;23.50;100594.00;;;;2053595;28;20704;-53
2021/08/17 00:20:48;;;;;;;13.93;11.17;;;;;23.50;100591.00;;;;2055666;28;20591;-52
2021/08/17 00:21:48;;;;;;;14.97;11.40;;;;;23.50;100591.00;;;;2057134;28;20230;-52
2021/08/17 00:22:48;;;;;;;12.60;10.40;;;;;23.50;100592.00;;;;2061189;28;20587;-53
2021/08/17 00:23:49;;;;;;;12.80;10.80;;;;;23.50;100596.00;;;;2066582;28;20269;-52
2021/08/17 00:24:50;;;;;;;12.97;10.50;;;;;23.50;100594.00;;;;2063385;28;20215;-53
2021/08/17 00:25:50;;;;;;;12.57;10.82;;;;;23.50;100598.00;;;;2063481;28;20213;-52
2021/08/17 00:26:51;;;;;;;13.27;10.60;;;;;23.50;100603.00;;;;2063430;28;20585;-52
2021/08/17 00:27:51;;;;;;;14.37;10.37;;;;;23.50;100594.00;;;;2068915;28;20210;-52
2021/08/17 00:28:52;;;;;;;11.43;10.10;;;;;23.50;100596.00;;;;2068755;28;20225;-52
2021/08/17 00:29:52;;;;;;;12.53;9.77;;;;;23.50;100598.00;;;;2071744;28;20210;-53
2021/08/17 00:30:53;;;;;;;11.97;9.20;;;;;23.50;100599.00;;;;2071229;28;20286;-52
2021/08/17 00:31:53;;;;;;;13.20;9.70;;;;;23.50;100596.00;;;;2071736;28;20214;-52
2021/08/17 00:32:53;;;;;;;12.73;9.43;;;;;23.50;100588.00;;;;2066494;28;20219;-52
2021/08/17 00:33:56;;;;;;;10.13;8.60;;;;;23.50;100594.00;;;;2066964;28;20215;-52
2021/08/17 00:34:57;;;;;;;12.10;9.15;;;;;23.50;100594.00;;;;2064571;28;20310;-52
2021/08/17 00:36:00;;;;;;;11.27;8.70;;;;;23.50;100592.00;;;;2062571;28;20215;-53
2021/08/17 00:37:01;;;;;;;12.70;9.00;;;;;23.40;100595.00;;;;2063225;28;20975;-53
2021/08/17 00:38:01;;;;;;;11.13;8.50;;;;;23.50;100604.00;;;;2063007;28;20211;-53
2021/08/17 00:39:02;;;;;;;10.63;8.53;;;;;23.50;100603.00;;;;2064656;28;20826;-53
2021/08/17 00:40:03;;;;;;;9.23;7.37;;;;;23.50;100595.00;;;;2069978;28;20723;-53
2021/08/17 00:41:06;;;;;;;11.90;8.30;;;;;23.50;100594.00;;;;2063210;28;20643;-53
2021/08/17 00:42:07;;;;;;;10.07;7.78;;;;;23.40;100598.00;;;;2065769;28;20458;-53
2021/08/17 00:43:10;;;;;;;9.40;7.65;;;;;23.40;100598.00;;;;2064539;28;20643;-52
2021/08/17 00:44:21;;;;;;;9.20;7.35;;;;;23.40;100596.00;;;;2063412;28;20715;-52
2021/08/17 00:45:23;;;;;;;9.07;7.47;;;;;23.40;100594.00;;;;2062562;28;20255;-52
2021/08/17 00:46:24;;;;;;;9.88;7.97;;;;;23.50;100593.00;;;;2069573;28;20233;-52
2021/08/17 00:47:25;;;;;;;8.00;7.20;;;;;23.40;100553.00;;;;2066028;28;20222;-52
2021/08/17 00:48:25;;;;;;;7.60;6.80;;;;;23.40;100594.00;;;;2065344;28;20329;-53
2021/08/17 00:49:26;;;;;;;7.43;6.53;;;;;23.50;100590.00;;;;2063581;28;20450;-52
2021/08/17 00:50:28;;;;;;;7.57;6.55;;;;;23.50;100596.00;;;;2062732;28;21096;-52
2021/08/17 00:51:28;;;;;;;8.95;6.95;;;;;23.40;100596.00;;;;2061984;28;20564;-52
2021/08/17 00:52:28;;;;;;;7.33;6.53;;;;;23.50;100600.00;;;;2056414;28;20226;-52
2021/08/17 00:53:31;;;;;;;7.53;6.27;;;;;23.40;100599.00;;;;2059197;28;20676;-52
2021/08/17 00:54:32;;;;;;;7.80;6.25;;;;;23.40;100595.00;;;;2055253;28;20274;-52
2021/08/17 00:55:32;;;;;;;8.25;7.10;;;;;23.40;100596.00;;;;2058682;28;20335;-53
2021/08/17 00:56:33;;;;;;;7.87;6.87;;;;;23.40;100601.00;;;;2062256;28;20711;-54
2021/08/17 00:57:33;;;;;;;8.20;6.87;;;;;23.40;100588.00;;;;2055316;28;20208;-54
2021/08/17 00:58:34;;;;;;;8.17;6.30;;;;;23.40;100602.00;;;;2061206;28;20249;-54
2021/08/17 00:59:34;;;;;;;7.03;6.30;;;;;23.40;100596.00;;;;2062545;28;20680;-53
2021/08/17 01:00:35;;;;;;;7.67;6.07;;;;;23.40;100601.00;;;;2058546;28;20216;-53
2021/08/17 01:01:35;;;;;;;7.20;5.73;;;;;23.40;100592.00;;;;2055506;28;20294;-53
2021/08/17 01:02:35;;;;;;;8.27;6.07;;;;;23.40;100601.00;;;;2059032;28;20223;-53
2021/08/17 01:03:37;;;;;;;8.83;6.10;;;;;23.40;100601.00;;;;2057133;28;20207;-52
2021/08/17 01:04:40;;;;;;;7.35;5.90;;;;;23.40;100605.00;;;;2066230;28;21037;-52
2021/08/17 01:05:41;;;;;;;6.60;5.68;;;;;23.40;100600.00;;;;2063775;28;20805;-52
2021/08/17 01:06:41;;;;;;;7.47;5.43;;;;;23.40;100596.00;;;;2059382;28;20220;-52
2021/08/17 01:07:41;;;;;;;6.87;5.33;;;;;23.40;100606.00;;;;2062876;28;20265;-52
2021/08/17 01:08:42;;;;;;;6.17;5.57;;;;;23.40;100606.00;;;;2055633;28;20667;-53
2021/08/17 01:09:42;;;;;;;8.97;5.60;;;;;23.40;100598.00;;;;2055173;28;20212;-53
2021/08/17 01:10:44;;;;;;;9.07;5.60;;;;;23.40;100594.00;;;;2060303;28;20207;-52
2021/08/17 01:11:45;;;;;;;6.82;4.88;;;;;23.40;100598.00;;;;2063056;28;20211;-52
2021/08/17 01:12:46;;;;;;;5.95;5.00;;;;;23.40;100606.00;;;;2062926;28;20229;-53
2021/08/17 01:13:50;;;;;;;5.80;5.00;;;;;23.40;100605.00;;;;2063228;28;20215;-52
2021/08/17 01:14:51;;;;;;;6.15;5.05;;;;;23.40;100601.00;;;;2058498;28;20562;-52
2021/08/17 01:15:54;;;;;;;6.90;5.80;;;;;23.40;100604.00;;;;2052875;28;20271;-52
2021/08/17 01:16:55;;;;;;;7.05;5.10;;;;;23.40;100593.00;;;;2046468;28;20216;-52
2021/08/17 01:17:56;;;;;;;7.40;5.50;;;;;23.40;100604.00;;;;2050169;28;20231;-53
2021/08/17 01:18:56;;;;;;;8.20;5.17;;;;;23.40;100598.00;;;;2063238;28;20210;-52
2021/08/17 01:19:56;;;;;;;5.90;4.90;;;;;23.40;100607.00;;;;2058697;28;20210;-52
2021/08/17 01:20:58;;;;;;;5.80;5.20;;;;;23.40;100601.00;;;;2058278;28;20215;-53
2021/08/17 01:21:58;;;;;;;6.53;4.82;;;;;23.40;100554.00;;;;2048191;28;20222;-52
2021/08/17 01:22:59;;;;;;;6.17;4.77;;;;;23.40;100598.00;;;;2047498;28;20227;-53
2021/08/17 01:23:59;;;;;;;6.23;4.57;;;;;23.40;100598.00;;;;2058476;28;20932;-52
2021/08/17 01:25:00;;;;;;;7.30;4.80;;;;;23.40;100599.00;;;;2053903;28;20211;-52
2021/08/17 01:26:00;;;;;;;7.17;4.87;;;;;23.40;100606.00;;;;2053760;28;20266;-53
2021/08/17 01:27:00;;;;;;;5.40;4.50;;;;;23.30;100597.00;;;;2054294;28;20212;-52
2021/08/17 01:28:01;;;;;;;6.00;4.90;;;;;23.20;100602.00;;;;2053924;28;20226;-53
2021/08/17 01:29:01;;;;;;;7.00;4.70;;;;;23.40;100604.00;;;;2054096;28;20298;-53
2021/08/17 01:30:02;;;;;;;5.50;4.70;;;;;23.40;100602.00;;;;2054443;28;20652;-52
2021/08/17 01:31:06;;;;;;;8.47;5.03;;;;;23.30;100598.00;;;;2054368;28;20224;-52
2021/08/17 01:32:07;;;;;;;5.90;4.40;;;;;23.30;100608.00;;;;2053053;28;20655;-52
2021/08/17 01:33:07;;;;;;;5.13;4.20;;;;;23.40;100606.00;;;;2058214;28;20222;-53
2021/08/17 01:34:08;;;;;;;6.60;4.23;;;;;23.30;100613.00;;;;2061179;28;20307;-53
2021/08/17 01:35:10;;;;;;;4.80;4.07;;;;;23.30;100603.00;;;;2057597;28;20222;-55
2021/08/17 01:36:10;;;;;;;5.60;4.40;;;;;23.30;100605.00;;;;2064501;28;20580;-53
2021/08/17 01:37:10;;;;;;;5.07;4.17;;;;;23.40;100608.00;;;;2059450;28;20230;-52
2021/08/17 01:38:11;;;;;;;5.80;4.30;;;;;23.40;100609.00;;;;2054901;28;20228;-52
2021/08/17 01:39:12;;;;;;;5.20;4.17;;;;;23.30;100607.00;;;;2058691;28;20357;-52
2021/08/17 01:40:13;;;;;;;6.97;4.53;;;;;23.30;100611.00;;;;2061947;28;20222;-52
2021/08/17 01:41:13;;;;;;;4.80;4.03;;;;;23.30;100604.00;;;;2055298;28;20235;-52
2021/08/17 01:42:14;;;;;;;4.60;3.70;;;;;23.30;100617.00;;;;2062204;28;20297;-53
2021/08/17 01:43:16;;;;;;;5.23;4.27;;;;;23.30;100606.00;;;;2058290;28;20692;-52
2021/08/17 01:44:17;;;;;;;4.40;3.55;;;;;23.30;100611.00;;;;2053131;28;20636;-53
2021/08/17 01:45:18;;;;;;;4.70;4.00;;;;;23.30;100615.00;;;;2045932;28;20641;-52
2021/08/17 01:46:19;;;;;;;4.28;3.88;;;;;23.30;100614.00;;;;2056038;28;20224;-53
2021/08/17 01:47:19;;;;;;;5.80;3.93;;;;;23.30;100621.00;;;;2058436;28;20266;-53
2021/08/17 01:48:19;;;;;;;4.93;3.83;;;;;23.30;100617.00;;;;2056316;28;20263;-53
2021/08/17 01:49:20;;;;;;;6.20;3.90;;;;;23.30;100623.00;;;;2056547;28;20230;-52
2021/08/17 01:50:21;;;;;;;4.50;3.50;;;;;23.30;100618.00;;;;2058194;28;20226;-53
2021/08/17 01:51:21;;;;;;;4.83;3.90;;;;;23.30;100612.00;;;;2062637;28;20219;-52
2021/08/17 01:52:22;;;;;;;7.00;4.53;;;;;23.30;100609.00;;;;2061896;28;20223;-52
2021/08/17 01:53:23;;;;;;;5.80;4.13;;;;;23.30;100605.00;;;;2058506;28;20227;-52
2021/08/17 01:54:24;;;;;;;4.73;3.70;;;;;23.30;100595.00;;;;2053836;28;20813;-52
2021/08/17 01:55:24;;;;;;;4.63;3.80;;;;;23.30;100612.00;;;;2053834;28;20309;-52
2021/08/17 01:56:25;;;;;;;5.40;4.10;;;;;23.30;100616.00;;;;2056872;28;20234;-52
2021/08/17 01:57:25;;;;;;;4.87;3.97;;;;;23.30;100611.00;;;;2054280;28;20215;-53
2021/08/17 01:58:25;;;;;;;4.70;3.70;;;;;23.30;100606.00;;;;2057202;28;20215;-53
2021/08/17 01:59:27;;;;;;;3.70;3.30;;;;;23.30;100604.00;;;;2064260;28;20219;-52
2021/08/17 02:00:27;;;;;;;5.78;3.90;;;;;23.30;100616.00;;;;2061293;28;21003;-52
2021/08/17 02:01:28;;;;;;;5.57;4.10;;;;;23.30;100613.00;;;;2066686;28;20337;-52
2021/08/17 02:02:28;;;;;;;4.13;3.50;;;;;23.30;100609.00;;;;2062591;28;20259;-52
2021/08/17 02:03:29;;;;;;;6.20;4.03;;;;;23.30;100610.00;;;;2056769;28;20710;-52
2021/08/17 02:04:31;;;;;;;4.60;3.60;;;;;23.30;100613.00;;;;2055933;28;20265;-52
2021/08/17 02:05:31;;;;;;;4.63;3.80;;;;;23.30;100614.00;;;;2057180;28;20219;-53
2021/08/17 02:06:31;;;;;;;5.13;3.93;;;;;23.30;100610.00;;;;2056361;28;20319;-52
2021/08/17 02:07:32;;;;;;;4.17;3.70;;;;;23.30;100609.00;;;;2057399;28;20215;-52
2021/08/17 02:08:34;;;;;;;4.30;3.63;;;;;23.30;100617.00;;;;2064187;28;20214;-52
2021/08/17 02:09:34;;;;;;;10.18;4.15;;;;;23.30;100616.00;;;;2070224;28;20461;-52
2021/08/17 02:10:35;;;;;;;4.37;3.67;;;;;23.30;100622.00;;;;2063197;28;20246;-52
2021/08/17 02:11:35;;;;;;;4.43;3.47;;;;;23.30;100626.00;;;;2065074;28;20349;-52
2021/08/17 02:12:36;;;;;;;4.20;3.60;;;;;23.30;100621.00;;;;2061674;28;20454;-52
2021/08/17 02:13:36;;;;;;;5.20;3.80;;;;;23.30;100621.00;;;;2062514;28;20213;-52
2021/08/17 02:14:36;;;;;;;7.50;4.20;;;;;23.20;100619.00;;;;2078159;28;20217;-51
2021/08/17 02:15:37;;;;;;;5.40;3.63;;;;;23.30;100617.00;;;;2063877;28;20219;-52
2021/08/17 02:16:37;;;;;;;5.23;3.47;;;;;23.30;100616.00;;;;2054877;28;20278;-52
2021/08/17 02:17:38;;;;;;;5.03;3.80;;;;;23.30;100625.00;;;;2055905;28;20215;-52
2021/08/17 02:18:38;;;;;;;5.73;4.47;;;;;23.30;100619.00;;;;2054724;28;20230;-52
2021/08/17 02:19:39;;;;;;;6.50;4.10;;;;;23.30;100618.00;;;;2055797;28;20318;-52
2021/08/17 02:20:39;;;;;;;3.87;3.57;;;;;23.30;100621.00;;;;2059768;28;20223;-52
2021/08/17 02:21:39;;;;;;;6.33;4.17;;;;;23.20;100620.00;;;;2064295;28;20264;-53
2021/08/17 02:22:40;;;;;;;5.30;4.20;;;;;23.20;100619.00;;;;2056784;28;20580;-53
2021/08/17 02:23:40;;;;;;;5.43;3.83;;;;;23.30;100620.00;;;;2062791;28;20217;-52
2021/08/17 02:24:41;;;;;;;5.97;3.93;;;;;23.30;100623.00;;;;2053677;28;20211;-52
2021/08/17 02:25:41;;;;;;;6.27;4.47;;;;;23.30;100625.00;;;;2054383;28;20207;-52
2021/08/17 02:26:41;;;;;;;6.10;4.47;;;;;23.30;100625.00;;;;2056148;28;20741;-52
2021/08/17 02:27:42;;;;;;;5.40;4.20;;;;;23.30;100622.00;;;;2056590;28;20216;-53
2021/08/17 02:28:42;;;;;;;4.87;3.53;;;;;23.30;100616.00;;;;2056594;28;20302;-52
2021/08/17 02:29:42;;;;;;;7.90;4.70;;;;;23.30;100618.00;;;;2056179;28;20211;-52
2021/08/17 02:30:43;;;;;;;4.67;3.70;;;;;23.30;100623.00;;;;2062337;28;20269;-53
2021/08/17 02:31:43;;;;;;;4.37;3.90;;;;;23.30;100624.00;;;;2062180;28;20221;-52
2021/08/17 02:32:43;;;;;;;6.53;4.53;;;;;23.30;100626.00;;;;2060981;28;20981;-52
2021/08/17 02:33:45;;;;;;;4.70;3.80;;;;;23.30;100621.00;;;;2055828;28;20636;-52
2021/08/17 02:34:45;;;;;;;4.85;3.65;;;;;23.30;100628.00;;;;2055956;28;20215;-52
2021/08/17 02:35:45;;;;;;;5.50;3.60;;;;;23.30;100630.00;;;;2055905;28;20215;-52
2021/08/17 02:36:46;;;;;;;6.90;4.20;;;;;23.20;100630.00;;;;2055669;28;20215;-52
2021/08/17 02:37:46;;;;;;;6.00;4.70;;;;;23.20;100632.00;;;;2056005;28;20310;-53
2021/08/17 02:38:47;;;;;;;5.63;4.20;;;;;23.20;100629.00;;;;2056313;28;20216;-52
2021/08/17 02:39:47;;;;;;;6.30;4.30;;;;;23.20;100632.00;;;;2056420;28;20207;-52
2021/08/17 02:40:47;;;;;;;5.00;4.07;;;;;23.20;100639.00;;;;2059585;28;20210;-52
2021/08/17 02:41:48;;;;;;;5.47;4.20;;;;;23.20;100630.00;;;;2068573;28;20668;-54
2021/08/17 02:42:48;;;;;;;5.27;4.07;;;;;23.20;100641.00;;;;2064338;28;20206;-55
2021/08/17 02:43:49;;;;;;;6.77;3.90;;;;;23.20;100631.00;;;;2071489;28;20215;-54
2021/08/17 02:44:49;;;;;;;6.70;4.90;;;;;23.20;100632.00;;;;2069812;28;20691;-53
2021/08/17 02:45:52;;;;;;;6.27;4.73;;;;;23.30;100631.00;;;;2068479;28;20214;-53
2021/08/17 02:46:52;;;;;;;7.53;4.72;;;;;23.20;100624.00;;;;2068514;28;20211;-52
2021/08/17 02:47:59;;;;;;;6.20;4.33;;;;;23.20;100628.00;;;;2060316;28;20216;-52
2021/08/17 02:49:00;;;;;;;6.18;4.35;;;;;23.30;100630.00;;;;2060629;28;20743;-52
2021/08/17 02:50:01;;;;;;;5.67;4.50;;;;;23.20;100626.00;;;;2067949;28;20310;-53
2021/08/17 02:51:02;;;;;;;5.95;4.50;;;;;23.20;100631.00;;;;2063126;28;20306;-53
2021/08/17 02:52:06;;;;;;;5.87;4.90;;;;;23.20;100627.00;;;;2071740;28;20765;-52
2021/08/17 02:53:06;;;;;;;6.43;4.15;;;;;23.20;100634.00;;;;2065662;28;20219;-52
2021/08/17 02:54:06;;;;;;;5.37;4.33;;;;;23.20;100627.00;;;;2068337;28;20288;-52
2021/08/17 02:55:10;;;;;;;6.47;5.33;;;;;23.20;100627.00;;;;2066152;28;20217;-52
2021/08/17 02:56:10;;;;;;;5.20;4.70;;;;;23.30;100632.00;;;;2065220;28;20318;-52
2021/08/17 02:57:11;;;;;;;6.77;5.10;;;;;23.20;100621.00;;;;2067934;28;20258;-52
2021/08/17 02:58:11;;;;;;;6.80;4.93;;;;;23.20;100628.00;;;;2066554;28;20241;-52
2021/08/17 02:59:11;;;;;;;6.77;5.27;;;;;23.20;100632.00;;;;2064568;28;20211;-52
2021/08/17 03:00:13;;;;;;;6.80;4.90;;;;;23.20;100622.00;;;;2060424;28;20406;-52
2021/08/17 03:01:13;;;;;;;6.95;5.20;;;;;23.30;100626.00;;;;2058348;28;20668;-52
2021/08/17 03:02:14;;;;;;;5.83;5.00;;;;;23.20;100625.00;;;;2056451;28;20216;-52
2021/08/17 03:03:14;;;;;;;6.23;4.90;;;;;23.20;100625.00;;;;2055710;28;20266;-52
2021/08/17 03:04:14;;;;;;;6.60;4.80;;;;;23.20;100625.00;;;;2058397;28;20223;-52
2021/08/17 03:05:15;;;;;;;6.23;5.10;;;;;23.20;100620.00;;;;2058880;28;20596;-53
2021/08/17 03:06:18;;;;;;;7.90;5.73;;;;;23.20;100615.00;;;;2056269;28;20224;-52
2021/08/17 03:07:19;;;;;;;6.75;5.65;;;;;23.20;100624.00;;;;2047119;28;20243;-52
2021/08/17 03:08:20;;;;;;;6.10;5.50;;;;;23.20;100620.00;;;;2055162;28;20215;-53
2021/08/17 03:09:21;;;;;;;6.13;4.63;;;;;23.20;100624.00;;;;2060072;28;20306;-53
2021/08/17 03:10:22;;;;;;;7.03;5.63;;;;;23.20;100629.00;;;;2059014;28;20215;-52
2021/08/17 03:11:25;;;;;;;7.05;5.78;;;;;23.20;100625.00;;;;2059505;28;20455;-55
2021/08/17 03:12:25;;;;;;;7.10;6.10;;;;;23.20;100631.00;;;;2059983;28;20250;-52
2021/08/17 03:13:26;;;;;;;6.40;5.73;;;;;23.20;100625.00;;;;2055683;28;20771;-52
2021/08/17 03:14:26;;;;;;;7.07;5.57;;;;;23.20;100627.00;;;;2062346;28;20223;-53
2021/08/17 03:15:32;;;;;;;6.93;5.07;;;;;23.20;100635.00;;;;2055995;28;20786;-51
2021/08/17 03:16:33;;;;;;;8.15;5.38;;;;;23.20;100635.00;;;;2059985;28;20214;-53
2021/08/17 03:17:37;;;;;;;6.60;5.00;;;;;23.20;100634.00;;;;2056206;28;20297;-52
2021/08/17 03:18:37;;;;;;;6.57;5.30;;;;;23.20;100638.00;;;;2061543;28;20294;-52
2021/08/17 03:19:37;;;;;;;6.60;5.40;;;;;23.20;100634.00;;;;2057801;28;20212;-52
2021/08/17 03:20:38;;;;;;;9.00;6.07;;;;;23.20;100633.00;;;;2058519;28;20212;-52
2021/08/17 03:21:39;;;;;;;7.10;5.87;;;;;23.20;100632.00;;;;2059938;28;20302;-52
2021/08/17 03:22:39;;;;;;;8.00;5.70;;;;;23.20;100636.00;;;;2057823;28;20576;-52
2021/08/17 03:23:41;;;;;;;6.70;5.73;;;;;23.20;100635.00;;;;2058380;28;20934;-52
2021/08/17 03:24:41;;;;;;;9.48;6.50;;;;;23.20;100631.00;;;;2058111;28;20705;-52
2021/08/17 03:25:41;;;;;;;7.90;6.47;;;;;23.20;100637.00;;;;2057576;28;20219;-52
2021/08/17 03:26:42;;;;;;;7.80;6.10;;;;;23.20;100637.00;;;;2057752;28;20710;-52
2021/08/17 03:27:42;;;;;;;9.00;6.63;;;;;23.20;100630.00;;;;2057538;28;20208;-52
2021/08/17 03:28:43;;;;;;;8.37;6.50;;;;;23.20;100635.00;;;;2060337;28;20222;-52
2021/08/17 03:29:43;;;;;;;8.40;6.17;;;;;23.20;100627.00;;;;2055519;28;20227;-52
2021/08/17 03:30:43;;;;;;;8.33;6.60;;;;;23.20;100629.00;;;;2059763;28;20215;-52
2021/08/17 03:31:44;;;;;;;7.40;6.30;;;;;23.20;100625.00;;;;2056067;28;20744;-52
2021/08/17 03:32:44;;;;;;;8.10;5.93;;;;;23.20;100628.00;;;;2061954;28;20648;-53
2021/08/17 03:33:44;;;;;;;8.77;6.80;;;;;23.20;100629.00;;;;2066529;28;20215;-52
2021/08/17 03:34:45;;;;;;;7.90;6.87;;;;;23.20;100631.00;;;;2062506;28;20223;-53
2021/08/17 03:35:46;;;;;;;9.90;7.17;;;;;23.20;100625.00;;;;2058439;28;20314;-53
2021/08/17 03:36:47;;;;;;;8.35;6.65;;;;;23.20;100622.00;;;;2057131;28;20247;-52
2021/08/17 03:37:47;;;;;;;9.00;6.77;;;;;23.20;100632.00;;;;2054806;28;20577;-52
2021/08/17 03:38:48;;;;;;;9.17;6.90;;;;;23.20;100624.00;;;;2065188;28;20269;-52
2021/08/17 03:39:48;;;;;;;8.13;6.70;;;;;23.20;100614.00;;;;2066946;28;20218;-52
2021/08/17 03:40:49;;;;;;;8.47;7.00;;;;;23.20;100625.00;;;;2064170;28;20282;-52
2021/08/17 03:41:49;;;;;;;8.67;6.67;;;;;23.20;100629.00;;;;2067894;28;20226;-52
2021/08/17 03:42:49;;;;;;;8.57;7.13;;;;;23.20;100625.00;;;;2066078;28;20226;-52
2021/08/17 03:43:50;;;;;;;8.53;7.30;;;;;23.20;100631.00;;;;2064301;28;20223;-53
2021/08/17 03:44:50;;;;;;;7.00;6.30;;;;;23.20;100632.00;;;;2062675;28;20214;-52
2021/08/17 03:45:55;;;;;;;7.03;6.30;;;;;23.20;100624.00;;;;2058383;28;20215;-52
2021/08/17 03:46:56;;;;;;;8.05;6.70;;;;;23.20;100632.00;;;;2062593;28;20222;-53
2021/08/17 03:47:56;;;;;;;8.90;6.90;;;;;23.20;100628.00;;;;2063117;28;20702;-53
2021/08/17 03:48:56;;;;;;;8.20;7.27;;;;;23.20;100633.00;;;;2055169;28;20451;-52
2021/08/17 03:49:57;;;;;;;10.57;7.70;;;;;23.20;100625.00;;;;2054969;28;20215;-52
2021/08/17 03:50:57;;;;;;;9.57;7.40;;;;;23.20;100629.00;;;;2061225;28;20218;-52
2021/08/17 03:51:57;;;;;;;9.23;7.70;;;;;23.20;100624.00;;;;2061408;28;20278;-53
2021/08/17 03:52:58;;;;;;;10.73;7.50;;;;;23.10;100629.00;;;;2060572;28;20226;-52
2021/08/17 03:53:59;;;;;;;9.27;7.20;;;;;23.20;100622.00;;;;2055435;28;20859;-52
2021/08/17 03:54:59;;;;;;;9.67;7.13;;;;;23.20;100615.00;;;;2056018;28;20215;-55
2021/08/17 03:56:00;;;;;;;8.83;7.43;;;;;23.20;100624.00;;;;2055577;28;20215;-54
2021/08/17 03:57:01;;;;;;;8.35;7.43;;;;;23.20;100630.00;;;;2056061;28;20294;-52
2021/08/17 03:58:01;;;;;;;10.87;8.13;;;;;23.20;100625.00;;;;2059554;28;20689;-52
2021/08/17 03:59:01;;;;;;;7.83;6.63;;;;;23.10;100624.00;;;;2050198;28;20213;-54
2021/08/17 04:00:04;;;;;;;12.50;8.37;;;;;23.10;100628.00;;;;2064745;28;20211;-53
2021/08/17 04:01:05;;;;;;;10.65;8.13;;;;;23.20;100628.00;;;;2066855;28;20214;-52
2021/08/17 04:02:05;;;;;;;9.17;7.83;;;;;23.20;100632.00;;;;2060401;28;20212;-53
2021/08/17 04:03:06;;;;;;;9.73;7.40;;;;;23.20;100629.00;;;;2059030;28;20298;-53
2021/08/17 04:04:06;;;;;;;9.10;7.70;;;;;23.10;100628.00;;;;2059530;28;20222;-53
2021/08/17 04:05:08;;;;;;;9.57;7.93;;;;;23.10;100628.00;;;;2066256;28;20215;-53
2021/08/17 04:06:08;;;;;;;8.90;8.00;;;;;23.10;100621.00;;;;2067617;28;20240;-53
2021/08/17 04:07:09;;;;;;;10.77;8.70;;;;;23.10;100622.00;;;;2060029;28;20716;-53
2021/08/17 04:08:09;;;;;;;11.33;8.00;;;;;23.10;100625.00;;;;2061933;28;20218;-52
2021/08/17 04:09:10;;;;;;;10.60;8.40;;;;;23.10;100620.00;;;;2062146;28;20223;-53
2021/08/17 04:10:10;;;;;;;9.47;7.63;;;;;23.10;100617.00;;;;2062578;28;20254;-53
2021/08/17 04:11:11;;;;;;;10.17;8.10;;;;;23.10;100624.00;;;;2057708;28;20482;-53
2021/08/17 04:12:11;;;;;;;7.80;7.00;;;;;23.10;100619.00;;;;2056571;28;20670;-52
2021/08/17 04:13:11;;;;;;;11.63;8.37;;;;;23.10;100633.00;;;;2067235;28;20222;-52
2021/08/17 04:14:12;;;;;;;11.27;8.80;;;;;23.10;100629.00;;;;2064346;28;20218;-52
2021/08/17 04:15:13;;;;;;;9.07;7.90;;;;;23.10;100628.00;;;;2065443;28;20250;-52
2021/08/17 04:16:13;;;;;;;9.77;7.93;;;;;23.10;100634.00;;;;2066898;28;20305;-52
2021/08/17 04:17:13;;;;;;;8.70;7.80;;;;;23.10;100626.00;;;;2064576;28;20711;-52
2021/08/17 04:18:14;;;;;;;10.70;8.43;;;;;23.10;100625.00;;;;2065382;28;20211;-52
2021/08/17 04:19:14;;;;;;;12.60;9.80;;;;;23.10;100626.00;;;;2066880;28;20229;-52
2021/08/17 04:20:15;;;;;;;9.10;7.87;;;;;23.10;100627.00;;;;2063754;28;20218;-52
2021/08/17 04:21:16;;;;;;;10.10;8.73;;;;;23.10;100626.00;;;;2064554;28;20225;-52
2021/08/17 04:22:16;;;;;;;10.37;8.60;;;;;23.10;100620.00;;;;2059383;28;20915;-52
2021/08/17 04:23:18;;;;;;;10.57;8.57;;;;;23.10;100622.00;;;;2058889;28;20452;-53
2021/08/17 04:24:18;;;;;;;10.37;8.03;;;;;23.10;100618.00;;;;2056957;28;20755;-52
2021/08/17 04:25:18;;;;;;;10.37;8.07;;;;;23.20;100618.00;;;;2057072;28;20258;-52
2021/08/17 04:26:19;;;;;;;10.00;8.23;;;;;23.10;100624.00;;;;2057385;28;20769;-53
2021/08/17 04:27:19;;;;;;;9.00;8.10;;;;;23.20;100629.00;;;;2056590;28;20212;-52
2021/08/17 04:28:19;;;;;;;10.03;8.17;;;;;23.20;100619.00;;;;2057026;28;20216;-52
2021/08/17 04:29:20;;;;;;;11.87;9.37;;;;;23.10;100628.00;;;;2056913;28;20906;-52
2021/08/17 04:30:20;;;;;;;12.10;8.30;;;;;23.10;100631.00;;;;2066575;28;20214;-52
2021/08/17 04:31:21;;;;;;;10.20;8.73;;;;;23.10;100633.00;;;;2065052;28;20218;-52
2021/08/17 04:32:21;;;;;;;9.53;8.30;;;;;23.10;100630.00;;;;2064802;28;20231;-52
2021/08/17 04:33:22;;;;;;;11.70;8.97;;;;;23.10;100633.00;;;;2066937;28;20680;-52
2021/08/17 04:34:22;;;;;;;9.97;8.60;;;;;23.10;100638.00;;;;2065345;28;20230;-52
2021/08/17 04:35:23;;;;;;;11.80;9.87;;;;;23.10;100636.00;;;;2064712;28;20308;-52
2021/08/17 04:36:23;;;;;;;10.50;9.23;;;;;23.10;100633.00;;;;2066672;28;20260;-52
2021/08/17 04:37:24;;;;;;;10.00;8.90;;;;;23.10;100644.00;;;;2065492;28;20645;-51
2021/08/17 04:38:24;;;;;;;12.20;9.60;;;;;23.10;100643.00;;;;2063296;28;20568;-52
2021/08/17 04:39:25;;;;;;;9.43;7.60;;;;;23.20;100648.00;;;;2066962;28;20301;-52
2021/08/17 04:40:26;;;;;;;9.20;7.78;;;;;23.20;100653.00;;;;2065282;28;20218;-53
2021/08/17 04:41:27;;;;;;;11.97;9.10;;;;;23.20;100655.00;;;;2064130;28;20210;-52
2021/08/17 04:42:27;;;;;;;10.03;8.83;;;;;23.20;100652.00;;;;2067088;28;20223;-52
2021/08/17 04:43:28;;;;;;;14.47;10.43;;;;;23.20;100642.00;;;;2066518;28;20224;-52
2021/08/17 04:44:28;;;;;;;12.37;9.97;;;;;23.20;100647.00;;;;2064285;28;20245;-52
2021/08/17 04:45:31;;;;;;;12.57;9.10;;;;;23.20;100655.00;;;;2069695;28;20321;-52
2021/08/17 04:46:31;;;;;;;11.73;10.30;;;;;23.20;100651.00;;;;2062873;28;20712;-52
2021/08/17 04:47:31;;;;;;;11.83;8.67;;;;;23.30;100651.00;;;;2062547;28;20226;-52
2021/08/17 04:48:32;;;;;;;9.60;8.50;;;;;23.30;100647.00;;;;2054931;28;20220;-53
2021/08/17 04:49:32;;;;;;;10.20;8.97;;;;;23.30;100665.00;;;;2061256;28;20289;-52
2021/08/17 04:50:33;;;;;;;10.00;8.77;;;;;23.30;100656.00;;;;2065591;28;20222;-53
2021/08/17 04:51:34;;;;;;;11.10;9.10;;;;;23.30;100664.00;;;;2056125;28;20511;-52
2021/08/17 04:52:34;;;;;;;12.30;9.17;;;;;23.30;100661.00;;;;2062427;28;20548;-53
2021/08/17 04:53:35;;;;;;;10.53;8.20;;;;;23.30;100665.00;;;;2058226;28;20553;-53
2021/08/17 04:54:38;;;;;;;13.13;9.55;;;;;23.30;100661.00;;;;2059341;28;20325;-53
2021/08/17 04:55:38;;;;;;;10.32;8.50;;;;;23.30;100664.00;;;;2058964;28;20223;-54
2021/08/17 04:56:39;;;;;;;12.97;9.33;;;;;23.20;100657.00;;;;2062567;28;20238;-53
2021/08/17 04:57:55;;;;;;;10.80;9.67;;;;;23.20;100662.00;;;;2058940;28;20239;-54
2021/08/17 04:58:56;;;;;;;11.35;8.68;;;;;23.20;100661.00;;;;2057966;28;20643;-53